• Join FlightAware (Why Join?)
  • Login
  • US Flag 
01:42PM EDT


 

Airport Tracker/Info


-or-


 

Live Flight TrackerFlight Track Log ✈ N445JA ✈ 19-Aug-2014 ✈ KFXE - KSGJ

Flight Track Log - Related Links

Times and Time Zones

All times are in EDT time to prevent confusion due to time zone crossing. See the N445JA flight status page for this flight to view local times or setup timezone preferences in your user account.

Time Position Orientation Groundspeed Altitude Reporting Facility
EDT Latitude Longitude Course Direction KTS MPH feet Rate Location/Type
11:58PM 26.2003 -80.1522 75° East 94 108 800  Level Miami Center
11:59PM 26.2150 -80.1447 25° Northeast 102 117 1,200 540 Climbing Miami Center
11:59PM 26.2214 -80.1514 317° Northwest 113 130 1,400 600 Climbing Miami Center
12:00AM 26.2336 -80.1653 314° West 109 125 1,800 480 Climbing Miami Center
12:00AM 26.2428 -80.1764 313° West 113 130 1,900 600 Climbing Miami Center
12:01AM 26.2628 -80.1881 332° Northwest 113 130 2,400 720 Climbing Miami Center
12:02AM 26.2922 -80.1833 North 106 122 3,100 600 Climbing Miami Center
12:03AM 26.3219 -80.1758 13° North 106 122 3,700 540 Climbing Miami Center
12:04AM 26.3519 -80.1761 360° North 106 122 4,300 600 Climbing Miami Center
12:05AM 26.3822 -80.1786 356° North 109 125 5,000 720 Climbing Miami Center
12:06AM 26.4125 -80.1758 North 109 125 5,800 720 Climbing Miami Center
12:07AM 26.4442 -80.1797 354° North 112 129 6,500 600 Climbing Miami Center
12:08AM 26.4781 -80.1833 355° North 115 132 7,100 240 Climbing Miami Center
12:09AM 26.5167 -80.1858 357° North 138 159 7,100  Level Miami Center
12:10AM 26.5597 -80.1847 North 153 176 7,100  Level Miami Center
12:11AM 26.6019 -80.1783 North 153 176 7,100  Level Miami Center
12:12AM 26.6453 -80.1778 North 154 177 7,100  Level Miami Center
12:13AM 26.6872 -80.1811 356° North 154 177 7,200 -60 Climbing Miami Center
12:14AM 26.7292 -80.1858 354° North 153 176 7,000 -60 Descending Miami Center
12:15AM 26.7722 -80.1886 357° North 154 177 7,100 60 Climbing Miami Center
12:16AM 26.8156 -80.1797 10° North 153 176 7,200  Climbing Miami Center
12:17AM 26.8569 -80.1778 North 153 176 7,100 -60 Descending Miami Center
12:18AM 26.9000 -80.1886 347° North 154 177 7,100  Level Miami Center
12:19AM 26.9389 -80.2050 339° North 154 177 7,100  Level Miami Center
12:20AM 26.9817 -80.2175 345° North 154 177 7,100  Level Miami Center
12:21AM 27.0206 -80.2286 346° North 150 173 7,200  Climbing Miami Center
12:22AM 27.0653 -80.2367 351° North 153 176 7,200  Level Miami Center
12:23AM 27.1042 -80.2500 343° North 153 176 7,200 -60 Level Miami Center
12:24AM 27.1483 -80.2647 343° North 155 178 7,100 -60 Descending Miami Center
12:25AM 27.1867 -80.2797 341° North 154 177 7,100  Level Miami Center
12:26AM 27.2267 -80.3003 335° Northwest 153 176 7,100  Level Miami Center
12:27AM 27.2647 -80.3175 338° Northwest 153 176 7,100  Level Miami Center
12:28AM 27.3069 -80.3333 342° North 152 175 7,100 -60 Level Miami Center
12:29AM 27.3461 -80.3458 344° North 152 175 7,000 -60 Descending Miami Center
12:30AM 27.3906 -80.3567 348° North 153 176 7,000  Level Miami Center
12:31AM 27.4419 -80.3686 348° North 154 177 7,000  Level Miami Center
12:32AM 27.4833 -80.3767 350° North 156 180 7,000  Level Miami Center
12:33AM 27.5253 -80.3936 340° North 155 178 7,000  Level Miami Center
12:34AM 27.5642 -80.4125 337° Northwest 156 180 7,000  Level Miami Center
12:35AM 27.6069 -80.4247 346° North 155 178 7,000  Level Miami Center
12:36AM 27.6447 -80.4442 335° Northwest 155 178 7,000  Level Miami Center
12:37AM 27.6867 -80.4625 339° North 155 178 7,100  Climbing Miami Center
12:38AM 27.7236 -80.4831 334° Northwest 154 177 7,100  Level Miami Center
12:39AM 27.7656 -80.5022 338° Northwest 155 178 7,100 -60 Level Miami Center
12:40AM 27.8058 -80.5150 344° North 155 178 7,000 -60 Descending Miami Center
12:41AM 27.8483 -80.5347 338° Northwest 155 178 7,000  Level Miami Center
12:42AM 27.8883 -80.5494 342° North 156 180 7,000  Level Miami Center
12:43AM 27.9319 -80.5658 342° North 156 180 7,000  Level Miami Center
12:44AM 27.9728 -80.5767 347° North 156 180 7,000  Level Miami Center
12:45AM 28.0133 -80.5983 335° Northwest 156 180 7,000  Level Miami Center
12:46AM 28.0528 -80.6106 345° North 155 178 7,000  Level Miami Center
12:47AM 28.0944 -80.6269 341° North 153 176 7,000  Level Miami Center
12:48AM 28.1167 -80.6333 346° North 154 177 7,000  Level Orlando TRACON
12:49AM 28.1667 -80.6500 344° North 152 175 7,000 -60 Level Orlando TRACON
12:50AM 28.2000 -80.6667 336° Northwest 154 177 6,900 -60 Descending Orlando TRACON
12:51AM 28.2500 -80.6833 344° North 153 176 6,900  Level Orlando TRACON
12:52AM 28.2833 -80.7000 336° Northwest 151 174 7,000  Climbing Orlando TRACON
12:53AM 28.3167 -80.7167 336° Northwest 151 174 7,000  Level Orlando TRACON
12:54AM 28.3500 -80.7167 360° North 150 173 7,000  Level Orlando TRACON
12:55AM 28.4000 -80.7333 344° North 152 175 7,000 -60 Level Orlando TRACON
12:56AM 28.4333 -80.7500 336° Northwest 155 178 6,900  Descending Orlando TRACON
12:57AM 28.4833 -80.7667 344° North 147 169 7,000  Climbing Orlando TRACON
12:58AM 28.5167 -80.7833 336° Northwest 150 173 7,000  Level Orlando TRACON
12:59AM 28.5500 -80.8000 336° Northwest 155 178 7,000  Level Orlando TRACON
01:00AM 28.6000 -80.8167 344° North 154 177 7,000 -60 Level Orlando TRACON
01:01AM 28.6333 -80.8333 336° Northwest 154 177 6,900  Descending Orlando TRACON
01:02AM 28.6833 -80.8333 360° North 157 181 7,000  Climbing Orlando TRACON
01:03AM 28.7167 -80.8500 336° Northwest 157 181 6,900  Descending Orlando TRACON
01:05AM 28.8178 -80.9003 336° Northwest 156 180 7,000  Climbing Jacksonville Center
01:06AM 28.8503 -80.9108 344° North 154 177 7,000  Level Jacksonville Center
01:07AM 28.8997 -80.9303 341° North 153 176 7,000  Level Jacksonville Center
01:08AM 28.9392 -80.9428 344° North 154 177 7,000  Level Jacksonville Center
01:09AM 28.9792 -80.9611 338° Northwest 154 177 7,100  Climbing Jacksonville Center
01:10AM 29.0194 -80.9756 343° North 154 177 7,100 -60 Level Jacksonville Center
01:11AM 29.0603 -80.9886 344° North 154 177 7,000 -60 Descending Jacksonville Center
01:12AM 29.1025 -81.0031 343° North 154 177 7,000 -60 Level Jacksonville Center
01:13AM 29.1419 -81.0203 339° North 154 177 6,900 -240 Descending Jacksonville Center
01:14AM 29.1850 -81.0400 338° Northwest 158 182 6,600 -360 Descending Jacksonville Center
01:14AM 29.1925 -81.0411 353° North 167 192 6,500 -300 Descending Jacksonville Center
01:15AM 29.2292 -81.0572 339° North 163 188 6,300 -240 Descending Jacksonville Center
01:16AM 29.2742 -81.0689 347° North 164 189 6,100 -300 Descending Jacksonville Center
01:16AM 29.2806 -81.0719 337° Northwest 165 190 6,000 -300 Descending Jacksonville Center
01:17AM 29.3122 -81.0833 343° North 166 191 5,800 -540 Descending Jacksonville Center
01:17AM 29.3275 -81.0947 327° Northwest 168 193 5,500 -600 Descending Jacksonville Center
01:18AM 29.3522 -81.1075 336° Northwest 164 189 5,200 -300 Descending Jacksonville Center
01:18AM 29.3703 -81.1100 353° North 168 193 5,200 -300 Level Jacksonville Center
01:19AM 29.4047 -81.1211 344° North 164 189 4,900 -300 Descending Jacksonville Center
01:19AM 29.4136 -81.1231 349° North 166 191 4,900 -240 Level Jacksonville Center
01:20AM 29.4475 -81.1372 340° North 164 189 4,700 -240 Descending Jacksonville Center
01:20AM 29.4567 -81.1383 354° North 162 186 4,700 -300 Level Jacksonville Center
01:21AM 29.4925 -81.1539 339° North 164 189 4,400 -420 Descending Jacksonville Center
01:21AM 29.4972 -81.1608 308° West 166 191 4,300 -300 Descending Jacksonville Center
01:22AM 29.5333 -81.1769 339° North 165 190 4,100 -240 Descending Jacksonville Center
01:22AM 29.5419 -81.1811 337° Northwest 162 186 4,100 -300 Level Jacksonville Center
01:23AM 29.5778 -81.1917 346° North 165 190 3,800 -420 Descending Jacksonville Center
01:23AM 29.5872 -81.1942 347° North 167 192 3,700 -420 Descending Jacksonville Center
01:24AM 29.6219 -81.2078 341° North 165 190 3,400 -420 Descending Jacksonville Center
01:24AM 29.6300 -81.2119 336° Northwest 164 189 3,300 -420 Descending Jacksonville Center
01:25AM 29.6644 -81.2244 342° North 164 189 3,000 -300 Descending Jacksonville Center
01:25AM 29.6731 -81.2300 331° Northwest 161 185 3,000 -120 Level Jacksonville Center
01:26AM 29.7061 -81.2411 344° North 163 188 2,900 -120 Descending Jacksonville Center
01:26AM 29.7139 -81.2453 335° Northwest 155 178 2,900 -120 Level Jacksonville Center
01:27AM 29.7472 -81.2525 349° North 155 178 2,800 -120 Descending Jacksonville Center
01:27AM 29.7578 -81.2578 337° Northwest 153 176 2,800 60 Level Jacksonville Center
01:28AM 29.7856 -81.2650 347° North 155 178 2,900  Climbing Jacksonville Center
01:46AM 29.7319 -81.2586 154° Southeast 163 188 3,000  Climbing Jacksonville Center
01:47AM 29.6914 -81.2361 154° Southeast 162 186 3,000  Level Jacksonville Center
01:48AM 29.6508 -81.2161 157° South 160 184 3,000  Level Jacksonville Center
01:49AM 29.6081 -81.1958 158° South 162 186 3,000  Level Jacksonville Center
01:50AM 29.5614 -81.1706 155° Southeast 162 186 3,000  Level Jacksonville Center
01:51AM 29.5206 -81.1531 160° South 161 185 3,000  Level Jacksonville Center
01:52AM 29.4800 -81.1306 154° Southeast 161 185 3,000 120 Level Jacksonville Center
01:53AM 29.4369 -81.1153 163° South 148 170 3,300 60 Climbing Jacksonville Center
01:54AM 29.3897 -81.1044 169° South 158 182 3,200 -60 Descending Jacksonville Center
01:55AM 29.3483 -81.0939 167° South 159 183 3,200 -60 Level Jacksonville Center
01:56AM 29.3050 -81.0833 168° South 159 183 3,100 -240 Descending Jacksonville Center
01:57AM 29.2619 -81.0703 165° South 157 181 2,800 -420 Descending Jacksonville Center
01:58AM 29.2189 -81.0550 163° South 157 181 2,300 -540 Descending Jacksonville Center